sensor_id;sensor_type;location;lat;lon;timestamp;P1;durP1;ratioP1;P2;durP2;ratioP2
11197;SDS011;5655;48.744;9.162;2023-09-07T00:01:16;3.72;;;3.30;;
11197;SDS011;5655;48.744;9.162;2023-09-07T00:03:41;4.95;;;3.00;;
11197;SDS011;5655;48.744;9.162;2023-09-07T00:06:07;3.65;;;2.53;;
11197;SDS011;5655;48.744;9.162;2023-09-07T00:08:33;2.42;;;2.10;;
11197;SDS011;5655;48.744;9.162;2023-09-07T00:11:05;2.65;;;2.20;;
11197;SDS011;5655;48.744;9.162;2023-09-07T00:13:31;3.67;;;2.45;;
11197;SDS011;5655;48.744;9.162;2023-09-07T00:15:59;4.53;;;2.58;;
11197;SDS011;5655;48.744;9.162;2023-09-07T00:18:25;3.10;;;2.53;;
11197;SDS011;5655;48.744;9.162;2023-09-07T00:20:51;3.63;;;2.15;;
11197;SDS011;5655;48.744;9.162;2023-09-07T00:23:16;2.53;;;2.33;;
11197;SDS011;5655;48.744;9.162;2023-09-07T00:25:42;2.47;;;2.15;;
11197;SDS011;5655;48.744;9.162;2023-09-07T00:28:07;2.72;;;2.00;;
11197;SDS011;5655;48.744;9.162;2023-09-07T00:30:32;2.72;;;2.35;;
11197;SDS011;5655;48.744;9.162;2023-09-07T00:32:57;2.58;;;2.38;;
11197;SDS011;5655;48.744;9.162;2023-09-07T00:35:23;2.15;;;1.95;;
11197;SDS011;5655;48.744;9.162;2023-09-07T00:37:48;2.60;;;2.15;;
11197;SDS011;5655;48.744;9.162;2023-09-07T00:40:13;2.47;;;2.28;;
11197;SDS011;5655;48.744;9.162;2023-09-07T00:42:39;3.00;;;2.28;;
11197;SDS011;5655;48.744;9.162;2023-09-07T00:45:04;5.53;;;2.97;;
11197;SDS011;5655;48.744;9.162;2023-09-07T00:47:30;6.70;;;2.78;;
11197;SDS011;5655;48.744;9.162;2023-09-07T00:49:59;2.50;;;2.30;;
11197;SDS011;5655;48.744;9.162;2023-09-07T00:52:25;4.45;;;2.50;;
11197;SDS011;5655;48.744;9.162;2023-09-07T00:54:50;2.58;;;2.30;;
11197;SDS011;5655;48.744;9.162;2023-09-07T00:57:15;3.03;;;2.25;;
11197;SDS011;5655;48.744;9.162;2023-09-07T00:59:41;2.95;;;2.60;;
11197;SDS011;5655;48.744;9.162;2023-09-07T01:02:06;3.00;;;2.70;;
11197;SDS011;5655;48.744;9.162;2023-09-07T01:04:31;3.17;;;2.60;;
11197;SDS011;5655;48.744;9.162;2023-09-07T01:08:00;4.68;;;2.67;;
11197;SDS011;5655;48.744;9.162;2023-09-07T01:10:11;2.70;;;2.50;;
11197;SDS011;5655;48.744;9.162;2023-09-07T01:12:36;5.63;;;2.85;;
11197;SDS011;5655;48.744;9.162;2023-09-07T01:15:02;3.00;;;2.53;;
11197;SDS011;5655;48.744;9.162;2023-09-07T01:17:29;6.32;;;2.63;;
11197;SDS011;5655;48.744;9.162;2023-09-07T01:19:55;6.00;;;2.53;;
11197;SDS011;5655;48.744;9.162;2023-09-07T01:22:24;5.25;;;2.72;;
11197;SDS011;5655;48.744;9.162;2023-09-07T01:24:50;3.75;;;2.92;;
11197;SDS011;5655;48.744;9.162;2023-09-07T01:27:17;2.80;;;2.60;;
11197;SDS011;5655;48.744;9.162;2023-09-07T01:29:43;3.83;;;2.83;;
11197;SDS011;5655;48.744;9.162;2023-09-07T01:32:09;5.75;;;3.08;;
11197;SDS011;5655;48.744;9.162;2023-09-07T01:34:38;3.45;;;2.78;;
11197;SDS011;5655;48.744;9.162;2023-09-07T01:37:04;3.05;;;2.70;;
11197;SDS011;5655;48.744;9.162;2023-09-07T01:39:29;3.70;;;2.90;;
11197;SDS011;5655;48.744;9.162;2023-09-07T01:41:54;3.65;;;2.90;;
11197;SDS011;5655;48.744;9.162;2023-09-07T01:44:20;3.13;;;2.75;;
11197;SDS011;5655;48.744;9.162;2023-09-07T01:46:45;4.10;;;3.05;;
11197;SDS011;5655;48.744;9.162;2023-09-07T01:49:10;3.35;;;2.72;;
11197;SDS011;5655;48.744;9.162;2023-09-07T01:51:35;3.55;;;3.25;;
11197;SDS011;5655;48.744;9.162;2023-09-07T01:54:01;2.92;;;2.63;;
11197;SDS011;5655;48.744;9.162;2023-09-07T01:56:27;3.60;;;3.20;;
11197;SDS011;5655;48.744;9.162;2023-09-07T01:58:52;3.25;;;2.95;;
11197;SDS011;5655;48.744;9.162;2023-09-07T02:01:24;3.35;;;2.85;;
11197;SDS011;5655;48.744;9.162;2023-09-07T02:03:51;3.35;;;2.88;;
11197;SDS011;5655;48.744;9.162;2023-09-07T02:06:17;3.38;;;3.08;;
11197;SDS011;5655;48.744;9.162;2023-09-07T02:08:42;3.88;;;2.80;;
11197;SDS011;5655;48.744;9.162;2023-09-07T02:11:07;4.38;;;3.35;;
11197;SDS011;5655;48.744;9.162;2023-09-07T02:13:33;3.70;;;3.10;;
11197;SDS011;5655;48.744;9.162;2023-09-07T02:15:58;5.13;;;3.58;;
11197;SDS011;5655;48.744;9.162;2023-09-07T02:18:27;3.72;;;3.30;;
11197;SDS011;5655;48.744;9.162;2023-09-07T02:20:53;4.07;;;3.05;;
11197;SDS011;5655;48.744;9.162;2023-09-07T02:23:18;5.53;;;3.28;;
11197;SDS011;5655;48.744;9.162;2023-09-07T02:25:43;4.53;;;3.70;;
11197;SDS011;5655;48.744;9.162;2023-09-07T02:28:08;4.07;;;3.67;;
11197;SDS011;5655;48.744;9.162;2023-09-07T02:30:34;4.45;;;3.50;;
11197;SDS011;5655;48.744;9.162;2023-09-07T02:32:59;3.95;;;3.55;;
11197;SDS011;5655;48.744;9.162;2023-09-07T02:35:24;4.68;;;3.78;;
11197;SDS011;5655;48.744;9.162;2023-09-07T02:37:50;4.22;;;3.63;;
11197;SDS011;5655;48.744;9.162;2023-09-07T02:40:15;4.90;;;3.78;;
11197;SDS011;5655;48.744;9.162;2023-09-07T02:42:41;7.45;;;3.90;;
11197;SDS011;5655;48.744;9.162;2023-09-07T02:45:09;5.32;;;3.60;;
11197;SDS011;5655;48.744;9.162;2023-09-07T02:47:35;3.83;;;3.05;;
11197;SDS011;5655;48.744;9.162;2023-09-07T02:50:01;4.28;;;3.47;;
11197;SDS011;5655;48.744;9.162;2023-09-07T02:52:26;4.88;;;3.60;;
11197;SDS011;5655;48.744;9.162;2023-09-07T02:54:51;3.85;;;3.45;;
11197;SDS011;5655;48.744;9.162;2023-09-07T02:57:17;4.00;;;3.30;;
11197;SDS011;5655;48.744;9.162;2023-09-07T02:59:42;4.93;;;3.45;;
11197;SDS011;5655;48.744;9.162;2023-09-07T03:02:07;3.50;;;3.20;;
11197;SDS011;5655;48.744;9.162;2023-09-07T03:04:34;3.85;;;3.03;;
11197;SDS011;5655;48.744;9.162;2023-09-07T03:07:02;5.75;;;3.65;;
11197;SDS011;5655;48.744;9.162;2023-09-07T03:09:28;4.03;;;3.55;;
11197;SDS011;5655;48.744;9.162;2023-09-07T03:11:53;5.07;;;3.28;;
11197;SDS011;5655;48.744;9.162;2023-09-07T03:14:18;3.65;;;3.35;;
11197;SDS011;5655;48.744;9.162;2023-09-07T03:16:43;6.05;;;3.88;;
11197;SDS011;5655;48.744;9.162;2023-09-07T03:19:09;7.22;;;3.97;;
11197;SDS011;5655;48.744;9.162;2023-09-07T03:21:34;4.40;;;3.53;;
11197;SDS011;5655;48.744;9.162;2023-09-07T03:23:59;4.50;;;3.47;;
11197;SDS011;5655;48.744;9.162;2023-09-07T03:26:25;16.25;;;6.85;;
11197;SDS011;5655;48.744;9.162;2023-09-07T03:28:50;14.85;;;5.13;;
11197;SDS011;5655;48.744;9.162;2023-09-07T03:31:16;9.00;;;5.00;;
11197;SDS011;5655;48.744;9.162;2023-09-07T03:33:42;5.63;;;4.13;;
11197;SDS011;5655;48.744;9.162;2023-09-07T03:36:07;5.82;;;3.75;;
11197;SDS011;5655;48.744;9.162;2023-09-07T03:38:34;6.07;;;3.80;;
11197;SDS011;5655;48.744;9.162;2023-09-07T03:40:59;4.45;;;3.67;;
11197;SDS011;5655;48.744;9.162;2023-09-07T03:43:25;5.30;;;4.18;;
11197;SDS011;5655;48.744;9.162;2023-09-07T03:45:50;4.10;;;3.10;;
11197;SDS011;5655;48.744;9.162;2023-09-07T03:48:15;5.40;;;4.05;;
11197;SDS011;5655;48.744;9.162;2023-09-07T03:50:40;6.13;;;3.88;;
11197;SDS011;5655;48.744;9.162;2023-09-07T03:53:06;4.57;;;4.00;;
11197;SDS011;5655;48.744;9.162;2023-09-07T03:55:39;5.50;;;3.80;;
11197;SDS011;5655;48.744;9.162;2023-09-07T03:58:09;4.00;;;3.58;;
11197;SDS011;5655;48.744;9.162;2023-09-07T04:00:37;10.13;;;4.47;;
11197;SDS011;5655;48.744;9.162;2023-09-07T04:03:04;4.43;;;4.03;;
11197;SDS011;5655;48.744;9.162;2023-09-07T04:05:29;4.22;;;3.63;;
11197;SDS011;5655;48.744;9.162;2023-09-07T04:07:54;5.28;;;4.78;;
11197;SDS011;5655;48.744;9.162;2023-09-07T04:10:20;6.10;;;4.75;;
11197;SDS011;5655;48.744;9.162;2023-09-07T04:12:45;5.10;;;4.50;;
11197;SDS011;5655;48.744;9.162;2023-09-07T04:15:10;5.30;;;4.65;;
11197;SDS011;5655;48.744;9.162;2023-09-07T04:17:36;5.38;;;4.50;;
11197;SDS011;5655;48.744;9.162;2023-09-07T04:20:05;6.55;;;4.43;;
11197;SDS011;5655;48.744;9.162;2023-09-07T04:22:32;6.05;;;5.07;;
11197;SDS011;5655;48.744;9.162;2023-09-07T04:24:58;8.63;;;5.43;;
11197;SDS011;5655;48.744;9.162;2023-09-07T04:27:23;6.65;;;5.32;;
11197;SDS011;5655;48.744;9.162;2023-09-07T04:29:48;12.40;;;5.82;;
11197;SDS011;5655;48.744;9.162;2023-09-07T04:32:14;9.50;;;5.22;;
11197;SDS011;5655;48.744;9.162;2023-09-07T04:34:40;6.55;;;5.57;;
11197;SDS011;5655;48.744;9.162;2023-09-07T04:37:05;8.10;;;6.80;;
11197;SDS011;5655;48.744;9.162;2023-09-07T04:39:30;8.48;;;6.80;;
11197;SDS011;5655;48.744;9.162;2023-09-07T04:41:56;8.57;;;6.90;;
11197;SDS011;5655;48.744;9.162;2023-09-07T04:44:21;9.25;;;7.22;;
11197;SDS011;5655;48.744;9.162;2023-09-07T04:46:46;11.13;;;7.05;;
11197;SDS011;5655;48.744;9.162;2023-09-07T04:49:12;9.68;;;7.32;;
11197;SDS011;5655;48.744;9.162;2023-09-07T04:51:37;8.48;;;6.65;;
11197;SDS011;5655;48.744;9.162;2023-09-07T04:54:02;7.50;;;6.60;;
11197;SDS011;5655;48.744;9.162;2023-09-07T04:56:28;11.50;;;7.47;;
11197;SDS011;5655;48.744;9.162;2023-09-07T04:58:54;7.25;;;6.50;;
11197;SDS011;5655;48.744;9.162;2023-09-07T05:01:19;8.32;;;7.05;;
11197;SDS011;5655;48.744;9.162;2023-09-07T05:03:44;10.07;;;6.85;;
11197;SDS011;5655;48.744;9.162;2023-09-07T05:06:11;7.40;;;6.68;;
11197;SDS011;5655;48.744;9.162;2023-09-07T05:08:36;9.90;;;6.78;;
11197;SDS011;5655;48.744;9.162;2023-09-07T05:11:02;7.57;;;5.95;;
11197;SDS011;5655;48.744;9.162;2023-09-07T05:13:29;8.75;;;6.35;;
11197;SDS011;5655;48.744;9.162;2023-09-07T05:15:55;9.88;;;6.38;;
11197;SDS011;5655;48.744;9.162;2023-09-07T05:18:21;8.55;;;6.07;;
11197;SDS011;5655;48.744;9.162;2023-09-07T05:20:47;8.30;;;6.90;;
11197;SDS011;5655;48.744;9.162;2023-09-07T05:23:17;7.72;;;6.10;;
11197;SDS011;5655;48.744;9.162;2023-09-07T05:25:46;8.45;;;6.22;;
11197;SDS011;5655;48.744;9.162;2023-09-07T05:28:17;7.75;;;6.35;;
11197;SDS011;5655;48.744;9.162;2023-09-07T05:30:43;7.60;;;6.80;;
11197;SDS011;5655;48.744;9.162;2023-09-07T05:33:12;8.88;;;6.72;;
11197;SDS011;5655;48.744;9.162;2023-09-07T05:35:38;7.07;;;6.03;;
11197;SDS011;5655;48.744;9.162;2023-09-07T05:38:04;8.52;;;6.75;;
11197;SDS011;5655;48.744;9.162;2023-09-07T05:40:33;8.15;;;6.65;;
11197;SDS011;5655;48.744;9.162;2023-09-07T05:42:59;10.75;;;6.65;;
11197;SDS011;5655;48.744;9.162;2023-09-07T05:45:25;10.77;;;7.45;;
11197;SDS011;5655;48.744;9.162;2023-09-07T05:47:50;10.32;;;6.85;;
11197;SDS011;5655;48.744;9.162;2023-09-07T05:50:15;10.25;;;6.68;;
11197;SDS011;5655;48.744;9.162;2023-09-07T05:52:47;11.68;;;7.05;;
11197;SDS011;5655;48.744;9.162;2023-09-07T05:55:12;9.85;;;7.30;;
11197;SDS011;5655;48.744;9.162;2023-09-07T05:57:37;9.90;;;7.07;;
11197;SDS011;5655;48.744;9.162;2023-09-07T06:00:03;7.72;;;6.80;;
11197;SDS011;5655;48.744;9.162;2023-09-07T06:02:29;9.45;;;6.93;;
11197;SDS011;5655;48.744;9.162;2023-09-07T06:04:55;8.45;;;7.28;;
11197;SDS011;5655;48.744;9.162;2023-09-07T06:07:21;11.63;;;7.18;;
11197;SDS011;5655;48.744;9.162;2023-09-07T06:09:46;7.50;;;6.80;;
11197;SDS011;5655;48.744;9.162;2023-09-07T06:12:12;10.00;;;6.88;;
11197;SDS011;5655;48.744;9.162;2023-09-07T06:14:38;10.00;;;6.55;;
11197;SDS011;5655;48.744;9.162;2023-09-07T06:17:03;9.18;;;6.55;;
11197;SDS011;5655;48.744;9.162;2023-09-07T06:19:29;7.60;;;6.53;;
11197;SDS011;5655;48.744;9.162;2023-09-07T06:21:54;8.25;;;6.55;;
11197;SDS011;5655;48.744;9.162;2023-09-07T06:24:19;8.98;;;6.82;;
11197;SDS011;5655;48.744;9.162;2023-09-07T06:26:45;10.20;;;6.68;;
11197;SDS011;5655;48.744;9.162;2023-09-07T06:29:11;11.68;;;7.18;;
11197;SDS011;5655;48.744;9.162;2023-09-07T06:31:36;8.88;;;6.93;;
11197;SDS011;5655;48.744;9.162;2023-09-07T06:34:01;8.70;;;6.68;;
11197;SDS011;5655;48.744;9.162;2023-09-07T06:36:29;6.75;;;6.05;;
11197;SDS011;5655;48.744;9.162;2023-09-07T06:38:54;9.43;;;6.53;;
11197;SDS011;5655;48.744;9.162;2023-09-07T06:41:20;7.25;;;6.53;;
11197;SDS011;5655;48.744;9.162;2023-09-07T06:43:45;7.18;;;6.15;;
11197;SDS011;5655;48.744;9.162;2023-09-07T06:46:11;8.23;;;6.63;;
11197;SDS011;5655;48.744;9.162;2023-09-07T06:48:36;7.57;;;6.25;;
11197;SDS011;5655;48.744;9.162;2023-09-07T06:51:02;9.43;;;6.03;;
11197;SDS011;5655;48.744;9.162;2023-09-07T06:53:31;6.80;;;6.10;;
11197;SDS011;5655;48.744;9.162;2023-09-07T06:56:00;11.63;;;6.15;;
11197;SDS011;5655;48.744;9.162;2023-09-07T06:58:27;7.15;;;6.00;;
11197;SDS011;5655;48.744;9.162;2023-09-07T07:00:52;8.25;;;6.75;;
11197;SDS011;5655;48.744;9.162;2023-09-07T07:03:22;10.93;;;7.00;;
11197;SDS011;5655;48.744;9.162;2023-09-07T07:05:47;8.65;;;5.95;;
11197;SDS011;5655;48.744;9.162;2023-09-07T07:08:12;8.98;;;6.45;;
11197;SDS011;5655;48.744;9.162;2023-09-07T07:10:38;7.30;;;6.20;;
11197;SDS011;5655;48.744;9.162;2023-09-07T07:13:03;8.70;;;6.53;;
11197;SDS011;5655;48.744;9.162;2023-09-07T07:15:28;6.72;;;6.07;;
11197;SDS011;5655;48.744;9.162;2023-09-07T07:17:54;11.40;;;6.38;;
11197;SDS011;5655;48.744;9.162;2023-09-07T07:20:19;7.10;;;6.03;;
11197;SDS011;5655;48.744;9.162;2023-09-07T07:22:44;6.90;;;6.00;;
11197;SDS011;5655;48.744;9.162;2023-09-07T07:25:10;7.20;;;5.90;;
11197;SDS011;5655;48.744;9.162;2023-09-07T07:27:35;7.00;;;5.95;;
11197;SDS011;5655;48.744;9.162;2023-09-07T07:30:01;7.93;;;6.32;;
11197;SDS011;5655;48.744;9.162;2023-09-07T07:32:27;6.60;;;5.97;;
11197;SDS011;5655;48.744;9.162;2023-09-07T07:34:53;7.82;;;5.70;;
11197;SDS011;5655;48.744;9.162;2023-09-07T07:37:18;8.80;;;5.90;;
11197;SDS011;5655;48.744;9.162;2023-09-07T07:39:43;7.07;;;5.93;;
11197;SDS011;5655;48.744;9.162;2023-09-07T07:42:08;7.70;;;5.82;;
11197;SDS011;5655;48.744;9.162;2023-09-07T07:44:37;7.15;;;5.78;;
11197;SDS011;5655;48.744;9.162;2023-09-07T07:47:02;7.25;;;5.50;;
11197;SDS011;5655;48.744;9.162;2023-09-07T07:49:28;8.30;;;6.30;;
11197;SDS011;5655;48.744;9.162;2023-09-07T07:51:53;7.10;;;5.65;;
11197;SDS011;5655;48.744;9.162;2023-09-07T07:54:20;7.18;;;5.65;;
11197;SDS011;5655;48.744;9.162;2023-09-07T07:56:47;6.45;;;5.65;;
11197;SDS011;5655;48.744;9.162;2023-09-07T07:59:13;8.60;;;5.70;;
11197;SDS011;5655;48.744;9.162;2023-09-07T08:01:38;6.82;;;5.65;;
11197;SDS011;5655;48.744;9.162;2023-09-07T08:04:05;8.23;;;6.30;;
11197;SDS011;5655;48.744;9.162;2023-09-07T08:06:30;8.52;;;5.65;;
11197;SDS011;5655;48.744;9.162;2023-09-07T08:08:55;8.35;;;5.90;;
11197;SDS011;5655;48.744;9.162;2023-09-07T08:11:20;7.70;;;6.40;;
11197;SDS011;5655;48.744;9.162;2023-09-07T08:13:46;8.25;;;6.28;;
11197;SDS011;5655;48.744;9.162;2023-09-07T08:16:12;7.78;;;5.43;;
11197;SDS011;5655;48.744;9.162;2023-09-07T08:18:37;8.55;;;5.88;;
11197;SDS011;5655;48.744;9.162;2023-09-07T08:21:02;7.03;;;5.90;;
11197;SDS011;5655;48.744;9.162;2023-09-07T08:23:28;6.57;;;5.80;;
11197;SDS011;5655;48.744;9.162;2023-09-07T08:25:53;6.95;;;6.05;;
11197;SDS011;5655;48.744;9.162;2023-09-07T08:28:19;7.68;;;6.63;;
11197;SDS011;5655;48.744;9.162;2023-09-07T08:30:48;7.53;;;6.28;;
11197;SDS011;5655;48.744;9.162;2023-09-07T08:33:14;8.70;;;6.53;;
11197;SDS011;5655;48.744;9.162;2023-09-07T08:35:39;7.28;;;5.55;;
11197;SDS011;5655;48.744;9.162;2023-09-07T08:38:09;7.07;;;5.78;;
11197;SDS011;5655;48.744;9.162;2023-09-07T08:40:35;7.43;;;6.40;;
11197;SDS011;5655;48.744;9.162;2023-09-07T08:43:04;6.55;;;5.95;;
11197;SDS011;5655;48.744;9.162;2023-09-07T08:45:31;6.50;;;5.90;;
11197;SDS011;5655;48.744;9.162;2023-09-07T08:48:02;6.55;;;5.65;;
11197;SDS011;5655;48.744;9.162;2023-09-07T08:50:28;7.38;;;6.50;;
11197;SDS011;5655;48.744;9.162;2023-09-07T08:52:55;8.35;;;5.57;;
11197;SDS011;5655;48.744;9.162;2023-09-07T08:55:24;6.93;;;5.40;;
11197;SDS011;5655;48.744;9.162;2023-09-07T08:57:50;7.15;;;5.57;;
11197;SDS011;5655;48.744;9.162;2023-09-07T09:00:15;8.68;;;5.72;;
11197;SDS011;5655;48.744;9.162;2023-09-07T09:02:50;7.68;;;6.10;;
11197;SDS011;5655;48.744;9.162;2023-09-07T09:05:19;8.07;;;5.90;;
11197;SDS011;5655;48.744;9.162;2023-09-07T09:07:45;6.50;;;5.60;;
11197;SDS011;5655;48.744;9.162;2023-09-07T09:10:10;7.70;;;5.47;;
11197;SDS011;5655;48.744;9.162;2023-09-07T09:12:35;7.65;;;5.63;;
11197;SDS011;5655;48.744;9.162;2023-09-07T09:15:09;6.05;;;5.35;;
11197;SDS011;5655;48.744;9.162;2023-09-07T09:17:34;6.57;;;4.95;;
11197;SDS011;5655;48.744;9.162;2023-09-07T09:20:00;5.50;;;5.00;;
11197;SDS011;5655;48.744;9.162;2023-09-07T09:22:25;6.00;;;5.18;;
11197;SDS011;5655;48.744;9.162;2023-09-07T09:24:50;7.43;;;5.60;;
11197;SDS011;5655;48.744;9.162;2023-09-07T09:27:16;7.40;;;5.45;;
11197;SDS011;5655;48.744;9.162;2023-09-07T09:29:42;6.05;;;5.32;;
11197;SDS011;5655;48.744;9.162;2023-09-07T09:32:07;8.93;;;5.35;;
11197;SDS011;5655;48.744;9.162;2023-09-07T09:34:33;6.25;;;5.28;;
11197;SDS011;5655;48.744;9.162;2023-09-07T09:37:00;5.97;;;5.38;;
11197;SDS011;5655;48.744;9.162;2023-09-07T09:39:26;6.40;;;5.40;;
11197;SDS011;5655;48.744;9.162;2023-09-07T09:41:52;7.43;;;5.93;;
11197;SDS011;5655;48.744;9.162;2023-09-07T09:44:17;7.68;;;5.95;;
11197;SDS011;5655;48.744;9.162;2023-09-07T09:46:46;6.22;;;5.03;;
11197;SDS011;5655;48.744;9.162;2023-09-07T09:49:12;6.53;;;5.78;;
11197;SDS011;5655;48.744;9.162;2023-09-07T09:51:40;6.82;;;5.78;;
11197;SDS011;5655;48.744;9.162;2023-09-07T09:54:07;9.13;;;6.07;;
11197;SDS011;5655;48.744;9.162;2023-09-07T09:56:34;7.32;;;4.97;;
11197;SDS011;5655;48.744;9.162;2023-09-07T09:58:59;10.25;;;5.05;;
11197;SDS011;5655;48.744;9.162;2023-09-07T10:01:25;6.35;;;4.90;;
11197;SDS011;5655;48.744;9.162;2023-09-07T10:03:50;6.63;;;5.82;;
11197;SDS011;5655;48.744;9.162;2023-09-07T10:06:18;6.80;;;5.68;;
11197;SDS011;5655;48.744;9.162;2023-09-07T10:08:54;8.85;;;5.50;;
11197;SDS011;5655;48.744;9.162;2023-09-07T10:11:26;7.93;;;5.18;;
11197;SDS011;5655;48.744;9.162;2023-09-07T10:13:59;5.90;;;4.93;;
11197;SDS011;5655;48.744;9.162;2023-09-07T10:16:26;7.40;;;5.53;;
11197;SDS011;5655;48.744;9.162;2023-09-07T10:18:52;5.20;;;4.53;;
11197;SDS011;5655;48.744;9.162;2023-09-07T10:21:17;6.25;;;5.07;;
11197;SDS011;5655;48.744;9.162;2023-09-07T10:23:43;6.10;;;5.43;;
11197;SDS011;5655;48.744;9.162;2023-09-07T10:26:13;7.90;;;4.93;;
11197;SDS011;5655;48.744;9.162;2023-09-07T10:28:41;6.68;;;5.10;;
11197;SDS011;5655;48.744;9.162;2023-09-07T10:31:13;5.95;;;5.20;;
11197;SDS011;5655;48.744;9.162;2023-09-07T10:33:40;9.63;;;5.70;;
11197;SDS011;5655;48.744;9.162;2023-09-07T10:36:06;6.57;;;5.15;;
11197;SDS011;5655;48.744;9.162;2023-09-07T10:38:35;9.57;;;5.68;;
11197;SDS011;5655;48.744;9.162;2023-09-07T10:41:04;8.93;;;5.18;;
11197;SDS011;5655;48.744;9.162;2023-09-07T10:43:30;6.47;;;4.90;;
11197;SDS011;5655;48.744;9.162;2023-09-07T10:45:57;7.72;;;4.75;;
11197;SDS011;5655;48.744;9.162;2023-09-07T10:48:28;6.30;;;4.55;;
11197;SDS011;5655;48.744;9.162;2023-09-07T10:50:54;8.35;;;5.15;;
11197;SDS011;5655;48.744;9.162;2023-09-07T10:53:28;6.18;;;4.75;;
11197;SDS011;5655;48.744;9.162;2023-09-07T10:55:56;5.63;;;4.95;;
11197;SDS011;5655;48.744;9.162;2023-09-07T10:58:24;8.68;;;4.72;;
11197;SDS011;5655;48.744;9.162;2023-09-07T11:00:52;5.40;;;4.72;;
11197;SDS011;5655;48.744;9.162;2023-09-07T11:03:18;5.38;;;4.68;;
11197;SDS011;5655;48.744;9.162;2023-09-07T11:05:43;5.28;;;4.78;;
11197;SDS011;5655;48.744;9.162;2023-09-07T11:08:08;5.95;;;4.80;;
11197;SDS011;5655;48.744;9.162;2023-09-07T11:10:34;5.45;;;4.60;;
11197;SDS011;5655;48.744;9.162;2023-09-07T11:13:01;6.47;;;5.03;;
11197;SDS011;5655;48.744;9.162;2023-09-07T11:15:29;4.47;;;4.07;;
11197;SDS011;5655;48.744;9.162;2023-09-07T11:17:54;6.93;;;4.72;;
11197;SDS011;5655;48.744;9.162;2023-09-07T11:20:21;5.22;;;4.72;;
11197;SDS011;5655;48.744;9.162;2023-09-07T11:22:47;6.53;;;5.15;;
11197;SDS011;5655;48.744;9.162;2023-09-07T11:25:13;6.03;;;4.57;;
11197;SDS011;5655;48.744;9.162;2023-09-07T11:27:40;6.10;;;4.88;;
11197;SDS011;5655;48.744;9.162;2023-09-07T11:30:05;5.47;;;4.45;;
11197;SDS011;5655;48.744;9.162;2023-09-07T11:32:36;7.25;;;4.32;;
11197;SDS011;5655;48.744;9.162;2023-09-07T11:35:01;6.05;;;4.78;;
11197;SDS011;5655;48.744;9.162;2023-09-07T11:37:27;6.00;;;4.57;;
11197;SDS011;5655;48.744;9.162;2023-09-07T11:39:52;4.72;;;4.32;;
11197;SDS011;5655;48.744;9.162;2023-09-07T11:42:18;6.53;;;4.55;;
11197;SDS011;5655;48.744;9.162;2023-09-07T11:44:43;6.03;;;5.15;;
11197;SDS011;5655;48.744;9.162;2023-09-07T11:47:08;6.03;;;5.18;;
11197;SDS011;5655;48.744;9.162;2023-09-07T11:49:34;5.88;;;4.70;;
11197;SDS011;5655;48.744;9.162;2023-09-07T11:51:59;6.10;;;5.20;;
11197;SDS011;5655;48.744;9.162;2023-09-07T11:54:24;5.18;;;4.30;;
11197;SDS011;5655;48.744;9.162;2023-09-07T11:56:50;5.50;;;4.80;;
11197;SDS011;5655;48.744;9.162;2023-09-07T11:59:15;6.15;;;4.25;;
11197;SDS011;5655;48.744;9.162;2023-09-07T12:01:42;6.00;;;4.40;;
11197;SDS011;5655;48.744;9.162;2023-09-07T12:04:08;6.93;;;4.53;;
11197;SDS011;5655;48.744;9.162;2023-09-07T12:06:33;5.13;;;4.63;;
11197;SDS011;5655;48.744;9.162;2023-09-07T12:09:02;6.05;;;4.43;;
11197;SDS011;5655;48.744;9.162;2023-09-07T12:11:30;4.60;;;4.10;;
11197;SDS011;5655;48.744;9.162;2023-09-07T12:13:55;8.77;;;5.13;;
11197;SDS011;5655;48.744;9.162;2023-09-07T12:16:21;5.18;;;4.50;;
11197;SDS011;5655;48.744;9.162;2023-09-07T12:18:47;6.13;;;4.25;;
11197;SDS011;5655;48.744;9.162;2023-09-07T12:21:12;5.03;;;4.28;;
11197;SDS011;5655;48.744;9.162;2023-09-07T12:23:37;6.53;;;4.43;;
11197;SDS011;5655;48.744;9.162;2023-09-07T12:26:03;5.73;;;4.70;;
11197;SDS011;5655;48.744;9.162;2023-09-07T12:28:31;5.85;;;4.32;;
11197;SDS011;5655;48.744;9.162;2023-09-07T12:30:59;7.13;;;4.35;;
11197;SDS011;5655;48.744;9.162;2023-09-07T12:33:24;5.50;;;4.40;;
11197;SDS011;5655;48.744;9.162;2023-09-07T12:35:49;5.35;;;4.15;;
11197;SDS011;5655;48.744;9.162;2023-09-07T12:38:15;5.00;;;4.20;;
11197;SDS011;5655;48.744;9.162;2023-09-07T12:40:43;7.50;;;4.75;;
11197;SDS011;5655;48.744;9.162;2023-09-07T12:43:09;5.35;;;3.92;;
11197;SDS011;5655;48.744;9.162;2023-09-07T12:45:34;4.25;;;3.75;;
11197;SDS011;5655;48.744;9.162;2023-09-07T12:48:00;5.20;;;4.30;;
11197;SDS011;5655;48.744;9.162;2023-09-07T12:50:26;4.63;;;3.90;;
11197;SDS011;5655;48.744;9.162;2023-09-07T12:52:52;4.97;;;4.20;;
11197;SDS011;5655;48.744;9.162;2023-09-07T12:55:18;4.68;;;3.90;;
11197;SDS011;5655;48.744;9.162;2023-09-07T12:57:44;4.90;;;3.78;;
11197;SDS011;5655;48.744;9.162;2023-09-07T13:00:09;5.15;;;4.03;;
11197;SDS011;5655;48.744;9.162;2023-09-07T13:02:36;4.70;;;4.30;;
11197;SDS011;5655;48.744;9.162;2023-09-07T13:05:01;4.35;;;3.95;;
11197;SDS011;5655;48.744;9.162;2023-09-07T13:07:30;4.40;;;4.00;;
11197;SDS011;5655;48.744;9.162;2023-09-07T13:09:57;5.05;;;3.78;;
11197;SDS011;5655;48.744;9.162;2023-09-07T13:12:22;5.72;;;4.05;;
11197;SDS011;5655;48.744;9.162;2023-09-07T13:14:47;3.90;;;3.60;;
11197;SDS011;5655;48.744;9.162;2023-09-07T13:17:13;4.80;;;3.88;;
11197;SDS011;5655;48.744;9.162;2023-09-07T13:19:41;4.28;;;3.83;;
11197;SDS011;5655;48.744;9.162;2023-09-07T13:22:08;6.28;;;3.88;;
11197;SDS011;5655;48.744;9.162;2023-09-07T13:24:34;4.07;;;3.65;;
11197;SDS011;5655;48.744;9.162;2023-09-07T13:26:59;7.93;;;3.90;;
11197;SDS011;5655;48.744;9.162;2023-09-07T13:29:25;4.00;;;3.70;;
11197;SDS011;5655;48.744;9.162;2023-09-07T13:31:51;6.68;;;3.78;;
11197;SDS011;5655;48.744;9.162;2023-09-07T13:34:18;5.60;;;3.85;;
11197;SDS011;5655;48.744;9.162;2023-09-07T13:36:44;4.72;;;3.70;;
11197;SDS011;5655;48.744;9.162;2023-09-07T13:39:10;3.95;;;3.65;;
11197;SDS011;5655;48.744;9.162;2023-09-07T13:41:35;4.53;;;3.70;;
11197;SDS011;5655;48.744;9.162;2023-09-07T13:44:00;5.03;;;3.97;;
11197;SDS011;5655;48.744;9.162;2023-09-07T13:46:26;3.80;;;3.35;;
11197;SDS011;5655;48.744;9.162;2023-09-07T13:48:52;4.15;;;3.50;;
11197;SDS011;5655;48.744;9.162;2023-09-07T13:51:17;5.65;;;3.40;;
11197;SDS011;5655;48.744;9.162;2023-09-07T13:53:42;4.03;;;3.60;;
11197;SDS011;5655;48.744;9.162;2023-09-07T13:56:07;4.25;;;3.72;;
11197;SDS011;5655;48.744;9.162;2023-09-07T13:58:33;4.38;;;3.72;;
11197;SDS011;5655;48.744;9.162;2023-09-07T14:00:58;4.25;;;3.65;;
11197;SDS011;5655;48.744;9.162;2023-09-07T14:03:24;4.22;;;3.80;;
11197;SDS011;5655;48.744;9.162;2023-09-07T14:05:49;5.15;;;4.00;;
11197;SDS011;5655;48.744;9.162;2023-09-07T14:08:15;4.00;;;3.60;;
11197;SDS011;5655;48.744;9.162;2023-09-07T14:10:40;4.60;;;3.25;;
11197;SDS011;5655;48.744;9.162;2023-09-07T14:13:06;6.13;;;3.35;;
11197;SDS011;5655;48.744;9.162;2023-09-07T14:15:31;4.10;;;3.63;;
11197;SDS011;5655;48.744;9.162;2023-09-07T14:17:56;6.43;;;3.60;;
11197;SDS011;5655;48.744;9.162;2023-09-07T14:20:22;5.00;;;3.47;;
11197;SDS011;5655;48.744;9.162;2023-09-07T14:22:47;4.85;;;3.80;;
11197;SDS011;5655;48.744;9.162;2023-09-07T14:25:13;4.47;;;3.58;;
11197;SDS011;5655;48.744;9.162;2023-09-07T14:27:38;5.50;;;3.40;;
11197;SDS011;5655;48.744;9.162;2023-09-07T14:30:04;5.50;;;3.90;;
11197;SDS011;5655;48.744;9.162;2023-09-07T14:32:30;4.75;;;3.72;;
11197;SDS011;5655;48.744;9.162;2023-09-07T14:34:55;5.05;;;3.50;;
11197;SDS011;5655;48.744;9.162;2023-09-07T14:37:21;4.00;;;3.60;;
11197;SDS011;5655;48.744;9.162;2023-09-07T14:39:46;5.38;;;3.60;;
11197;SDS011;5655;48.744;9.162;2023-09-07T14:42:14;3.90;;;3.50;;
11197;SDS011;5655;48.744;9.162;2023-09-07T14:44:42;6.00;;;3.60;;
11197;SDS011;5655;48.744;9.162;2023-09-07T14:47:08;4.35;;;3.50;;
11197;SDS011;5655;48.744;9.162;2023-09-07T14:49:35;6.95;;;4.20;;
11197;SDS011;5655;48.744;9.162;2023-09-07T14:52:00;4.45;;;3.85;;
11197;SDS011;5655;48.744;9.162;2023-09-07T14:54:26;3.80;;;3.40;;